KOJC

Johnson County Executive Airport

Olathe, Kansas, USA
METAR KOJC 232253Z 29005KT 10SM CLR 01/M03 A3021 RMK AO2 SLP239 T00061033
Observed Flight Rules
Jan-23 @ 22:53 UTC (49 minutes ago) Visual Flight Rules
Wind Visibility Clouds
290° at 5 knots 10 miles
  • Clear skies
Temperatures Readings
Current 1°C / 34°F
Dewpoint -3°C / 27°F
Humidity 75%
Altimeter 30.21" Hg
Pressure 1023.9 hPa
Elevation 326
METAR KOJC 232253Z 29005KT 10SM CLR 01/M03 A3021 RMK AO2 SLP239 T00061033
Observed Flight Rules
Jan-23 @ 22:53 UTC
(49 minutes ago)
VFR
Wind Visibility
290° at 5 knots 10 miles
Clouds
  • Clear skies
Temperature Dewpoint
1°C / 34°F -3°C / 27°F
Humidity Altimeter Pressure
75% 30.21" Hg 1023.9 hPa